createdAt,value
2019-01-13T00:00:38.824Z,97765.31
2019-01-13T00:03:11.120Z,97758.98
2019-01-13T00:05:43.446Z,97769.59
2019-01-13T00:08:15.806Z,97763.64
2019-01-13T00:10:48.198Z,97764.11
2019-01-13T00:13:20.502Z,97761.48
2019-01-13T00:15:52.837Z,97757.91
2019-01-13T00:18:25.538Z,97760.42
2019-01-13T00:20:57.288Z,97764.11
2019-01-13T00:23:29.584Z,97751.92
2019-01-13T00:26:02.241Z,97760.77
2019-01-13T00:28:34.000Z,97759.45
2019-01-13T00:31:06.385Z,97756.83
2019-01-13T00:33:38.691Z,97753.37
2019-01-13T00:36:11.390Z,97751.56
2019-01-13T00:38:43.402Z,97754.06
2019-01-13T00:41:15.758Z,97761.01
2019-01-13T00:43:48.360Z,97759.44
2019-01-13T00:46:20.201Z,97762.08
2019-01-13T00:48:52.495Z,97757.66
2019-01-13T00:51:25.153Z,97761.01
2019-01-13T00:53:56.990Z,97768.87
2019-01-13T00:56:29.314Z,97768.76
2019-01-13T00:59:01.718Z,97773.16
2019-01-13T01:01:34.056Z,97770.41
2019-01-13T01:04:06.396Z,97779.02
2019-01-13T01:06:39.070Z,97769.23
2019-01-13T01:09:11.930Z,97775.42
2019-01-13T01:11:44.318Z,97781.64
2019-01-13T01:14:16.267Z,97780.20
2019-01-13T01:16:48.689Z,97777.82
2019-01-13T01:19:21.078Z,97782.24
2019-01-13T01:21:53.412Z,97780.08
2019-01-13T01:24:25.706Z,97775.20
2019-01-13T01:26:58.328Z,97776.63
2019-01-13T01:29:30.800Z,97772.23
2019-01-13T01:32:03.477Z,97773.88
2019-01-13T01:34:35.541Z,97778.17
2019-01-13T01:37:07.977Z,97772.92
2019-01-13T01:39:40.286Z,97770.67
2019-01-13T01:42:12.681Z,97776.88
2019-01-13T01:44:45.123Z,97775.68
2019-01-13T01:47:17.437Z,97782.60
2019-01-13T01:49:49.756Z,97781.64
2019-01-13T01:52:22.166Z,97786.05
2019-01-13T01:54:54.494Z,97787.96
2019-01-13T01:57:27.248Z,97786.05
2019-01-13T01:59:59.375Z,97782.80
2019-01-13T02:02:31.711Z,97790.45
2019-01-13T02:05:04.121Z,97794.12
2019-01-13T02:07:36.553Z,97795.58
2019-01-13T02:10:12.910Z,97791.02
2019-01-13T02:12:45.203Z,97782.66
2019-01-13T02:15:26.505Z,97774.09
2019-01-13T02:17:58.809Z,97784.71
2019-01-13T02:20:31.138Z,97778.02
2019-01-13T02:23:03.447Z,97770.10
2019-01-13T02:25:36.897Z,97766.51
2019-01-13T02:28:08.666Z,97763.30
2019-01-13T02:30:48.806Z,97770.92
2019-01-13T02:33:15.095Z,97776.17
2019-01-13T02:35:47.491Z,97772.11
2019-01-13T02:38:19.819Z,97777.59
2019-01-13T02:40:52.151Z,97779.00
2019-01-13T02:43:24.552Z,97779.62
2019-01-13T02:45:56.891Z,97765.05
2019-01-13T02:48:29.216Z,97762.90
2019-01-13T02:51:01.539Z,97761.80
2019-01-13T02:53:33.856Z,97760.99
2019-01-13T02:56:06.187Z,97767.31
2019-01-13T02:58:38.610Z,97767.56
2019-01-13T03:01:11.037Z,97771.00
2019-01-13T03:03:43.455Z,97766.24
2019-01-13T03:06:15.838Z,97763.71
2019-01-13T03:08:48.144Z,97759.80
2019-01-13T03:11:20.479Z,97755.98
2019-01-13T03:13:53.086Z,97753.95
2019-01-13T03:16:25.445Z,97766.39
2019-01-13T03:18:57.724Z,97763.02
2019-01-13T03:21:30.109Z,97760.62
2019-01-13T03:24:02.419Z,97769.09
2019-01-13T03:26:34.954Z,97771.40
2019-01-13T03:29:07.278Z,97761.61
2019-01-13T03:31:39.577Z,97762.33
2019-01-13T03:34:11.886Z,97768.30
2019-01-13T03:36:44.210Z,97762.70
2019-01-13T03:39:16.530Z,97758.14
2019-01-13T03:41:49.201Z,97760.17
2019-01-13T03:44:21.337Z,97757.80
2019-01-13T03:46:53.198Z,97747.88
2019-01-13T03:49:25.529Z,97756.48
2019-01-13T03:51:57.858Z,97754.67
2019-01-13T03:54:30.153Z,97758.64
2019-01-13T03:57:02.471Z,97755.05
2019-01-13T03:59:35.087Z,97749.66
2019-01-13T04:02:06.850Z,97758.27
2019-01-13T04:04:39.175Z,97764.33
2019-01-13T04:07:11.501Z,97762.99
2019-01-13T04:09:44.156Z,97761.21
2019-01-13T04:12:16.217Z,97760.12
2019-01-13T04:14:48.905Z,97752.86
2019-01-13T04:17:20.658Z,97748.20
2019-01-13T04:19:53.316Z,97736.85
2019-01-13T04:22:25.213Z,97734.81
2019-01-13T04:24:57.539Z,97732.66
2019-01-13T04:27:29.855Z,97735.97
2019-01-13T04:30:02.182Z,97739.58
2019-01-13T04:32:34.584Z,97736.70
2019-01-13T04:35:07.921Z,97724.28
2019-01-13T04:37:40.008Z,97721.02
2019-01-13T04:40:12.348Z,97724.53
2019-01-13T04:42:44.684Z,97727.97
2019-01-13T04:45:17.172Z,97721.19
2019-01-13T04:47:50.338Z,97719.11
2019-01-13T04:50:22.360Z,97728.19
2019-01-13T04:52:54.967Z,97728.31
2019-01-13T04:55:27.694Z,97723.56
2019-01-13T04:57:59.449Z,97721.48
2019-01-13T05:00:32.141Z,97714.92
2019-01-13T05:03:03.991Z,97728.66
2019-01-13T05:05:36.364Z,97722.39
2019-01-13T05:08:09.007Z,97734.81
2019-01-13T05:10:40.761Z,97722.52
2019-01-13T05:13:13.084Z,97723.20
2019-01-13T05:15:45.405Z,97717.73
2019-01-13T05:18:17.732Z,97719.42
2019-01-13T05:20:50.055Z,97716.63
2019-01-13T05:23:22.387Z,97712.81
2019-01-13T05:25:55.080Z,97712.94
2019-01-13T05:28:26.939Z,97720.31
2019-01-13T05:30:59.305Z,97707.17
2019-01-13T05:33:31.642Z,97696.54
2019-01-13T05:36:04.042Z,97699.97
2019-01-13T05:38:36.419Z,97698.09
2019-01-13T05:41:08.752Z,97698.77
2019-01-13T05:43:41.069Z,97689.38
2019-01-13T05:46:13.402Z,97687.08
2019-01-13T05:48:45.731Z,97688.77
2019-01-13T05:51:18.184Z,97676.94
2019-01-13T05:53:50.573Z,97678.00
2019-01-13T05:56:22.900Z,97682.11
2019-01-13T05:58:55.339Z,97674.66
2019-01-13T06:01:27.706Z,97666.90
2019-01-13T06:04:00.276Z,97666.90
2019-01-13T06:06:32.917Z,97668.34
2019-01-13T06:09:06.472Z,97672.62
2019-01-13T06:11:38.830Z,97668.80
2019-01-13T06:14:11.434Z,97672.11
2019-01-13T06:16:43.851Z,97664.60
2019-01-13T06:19:16.177Z,97663.80
2019-01-13T06:21:49.223Z,97659.60
2019-01-13T06:24:21.357Z,97662.73
2019-01-13T06:26:53.740Z,97661.84
2019-01-13T06:29:26.189Z,97658.67
2019-01-13T06:31:58.919Z,97658.03
2019-01-13T06:34:30.742Z,97653.45
2019-01-13T06:37:03.086Z,97652.52
2019-01-13T06:39:35.492Z,97654.84
2019-01-13T06:42:07.893Z,97665.91
2019-01-13T06:44:40.558Z,97658.03
2019-01-13T06:47:12.344Z,97651.08
2019-01-13T06:49:46.029Z,97638.34
2019-01-13T06:52:16.814Z,97639.71
2019-01-13T06:54:48.813Z,97627.36
2019-01-13T06:57:20.670Z,97627.23
2019-01-13T06:59:53.367Z,97637.42
2019-01-13T07:02:25.526Z,97641.72
2019-01-13T07:04:57.279Z,97643.81
2019-01-13T07:07:29.746Z,97640.84
2019-01-13T07:10:02.320Z,97647.37
2019-01-13T07:12:34.635Z,97642.11
2019-01-13T07:15:09.936Z,97648.34
2019-01-13T07:17:42.297Z,97642.05
2019-01-13T07:20:17.402Z,97642.11
2019-01-13T07:22:50.133Z,97634.09
2019-01-13T07:25:21.942Z,97630.72
2019-01-13T07:27:54.349Z,97623.89
2019-01-13T07:30:27.132Z,97617.91
2019-01-13T07:32:59.296Z,97619.89
2019-01-13T07:35:31.634Z,97610.94
2019-01-13T07:38:03.993Z,97613.39
2019-01-13T07:40:36.390Z,97617.78
2019-01-13T07:43:08.741Z,97610.42
2019-01-13T07:45:41.377Z,97614.28
2019-01-13T07:48:13.158Z,97617.44
2019-01-13T07:50:45.936Z,97610.67
2019-01-13T07:53:18.478Z,97610.42
2019-01-13T07:55:50.551Z,97615.56
2019-01-13T07:58:23.345Z,97603.72
2019-01-13T08:00:55.552Z,97599.69
2019-01-13T08:03:28.196Z,97603.30
2019-01-13T08:06:00.874Z,97598.64
2019-01-13T08:08:33.025Z,97599.21
2019-01-13T08:11:05.219Z,97598.95
2019-01-13T08:13:37.040Z,97590.61
2019-01-13T08:16:09.364Z,97590.88
2019-01-13T08:18:42.108Z,97590.23
2019-01-13T08:21:13.873Z,97586.36
2019-01-13T08:23:46.220Z,97596.11
2019-01-13T08:26:18.938Z,97586.36
2019-01-13T08:28:51.394Z,97579.34
2019-01-13T08:31:23.513Z,97577.84
2019-01-13T08:33:55.884Z,97574.58
2019-01-13T08:36:28.362Z,97572.45
2019-01-13T08:39:00.758Z,97557.84
2019-01-13T08:41:33.232Z,97550.27
2019-01-13T08:44:05.581Z,97548.13
2019-01-13T08:46:37.970Z,97540.91
2019-01-13T08:49:10.354Z,97537.47
2019-01-13T08:51:42.727Z,97524.84
2019-01-13T08:54:15.422Z,97521.25
2019-01-13T08:56:47.234Z,97518.20
2019-01-13T08:59:19.613Z,97509.99
2019-01-13T09:01:52.204Z,97515.73
2019-01-13T09:04:25.219Z,97518.51
2019-01-13T09:06:57.256Z,97521.56
2019-01-13T09:09:30.193Z,97513.33
2019-01-13T09:12:02.449Z,97511.17
2019-01-13T09:14:34.786Z,97514.22
2019-01-13T09:17:07.188Z,97516.86
2019-01-13T09:19:39.817Z,97509.57
2019-01-13T09:22:12.632Z,97497.72
2019-01-13T09:24:44.798Z,97504.02
2019-01-13T09:27:17.178Z,97486.58
2019-01-13T09:29:49.678Z,97484.08
2019-01-13T09:32:22.100Z,97483.19
2019-01-13T09:34:54.425Z,97481.36
2019-01-13T09:37:27.098Z,97487.38
2019-01-13T09:39:58.950Z,97480.66
2019-01-13T09:42:31.299Z,97486.43
2019-01-13T09:45:03.725Z,97476.70
2019-01-13T09:47:36.105Z,97475.81
2019-01-13T09:50:11.193Z,97468.47
2019-01-13T09:52:43.522Z,97462.64
2019-01-13T09:55:17.630Z,97464.38
2019-01-13T09:57:50.115Z,97459.73
2019-01-13T10:00:37.925Z,97456.14
2019-01-13T10:03:11.541Z,97450.13
2019-01-13T10:05:42.360Z,97431.16
2019-01-13T10:08:14.066Z,97428.53
2019-01-13T10:10:46.391Z,97418.33
2019-01-13T10:13:18.715Z,97414.38
2019-01-13T10:15:51.350Z,97402.56
2019-01-13T10:18:23.199Z,97406.19
2019-01-13T10:20:56.177Z,97407.31
2019-01-13T10:23:28.508Z,97402.09
2019-01-13T10:26:00.407Z,97398.98
2019-01-13T10:28:36.311Z,97399.79
2019-01-13T10:31:09.624Z,97384.49
2019-01-13T10:33:41.636Z,97390.50
2019-01-13T10:36:14.348Z,97382.52
2019-01-13T10:38:46.696Z,97382.52
2019-01-13T10:41:19.256Z,97372.13
2019-01-13T10:43:53.598Z,97359.10
2019-01-13T10:46:26.997Z,97347.06
2019-01-13T10:48:59.265Z,97331.41
2019-01-13T10:51:32.563Z,97322.81
2019-01-13T10:54:09.265Z,97312.59
2019-01-13T10:56:40.925Z,97318.34
2019-01-13T10:59:17.658Z,97311.75
2019-01-13T11:01:51.203Z,97311.20
2019-01-13T11:04:22.073Z,97312.34
2019-01-13T11:06:53.738Z,97317.46
2019-01-13T11:09:26.437Z,97317.05
2019-01-13T11:11:58.549Z,97311.79
2019-01-13T11:14:32.683Z,97307.17
2019-01-13T11:17:05.421Z,97300.04
2019-01-13T11:19:37.462Z,97304.79
2019-01-13T11:22:09.849Z,97308.73
2019-01-13T11:24:42.160Z,97295.50
2019-01-13T11:27:14.506Z,97281.38
2019-01-13T11:29:47.229Z,97279.84
2019-01-13T11:32:19.243Z,97272.38
2019-01-13T11:34:51.571Z,97269.09
2019-01-13T11:37:23.893Z,97262.84
2019-01-13T11:39:56.282Z,97246.35
2019-01-13T11:42:28.566Z,97240.06
2019-01-13T11:45:01.098Z,97238.38
2019-01-13T11:47:33.456Z,97229.49
2019-01-13T11:50:07.671Z,97228.83
2019-01-13T11:52:40.053Z,97215.96
2019-01-13T11:55:14.127Z,97212.05
2019-01-13T11:57:46.941Z,97207.92
2019-01-13T12:00:29.222Z,97212.67
2019-01-13T12:03:06.645Z,97210.41
2019-01-13T12:05:35.989Z,97210.05
2019-01-13T12:08:08.829Z,97203.28
2019-01-13T12:10:41.086Z,97198.48
2019-01-13T12:13:13.428Z,97188.17
2019-01-13T12:15:45.748Z,97181.73
2019-01-13T12:18:18.049Z,97181.37
2019-01-13T12:20:50.722Z,97156.09
2019-01-13T12:23:22.457Z,97146.94
2019-01-13T12:25:54.818Z,97137.19
2019-01-13T12:28:27.094Z,97129.95
2019-01-13T12:30:59.435Z,97108.41
2019-01-13T12:33:31.788Z,97106.27
2019-01-13T12:36:04.187Z,97102.70
2019-01-13T12:38:38.467Z,97094.31
2019-01-13T12:41:10.923Z,97098.92
2019-01-13T12:43:43.296Z,97093.90
2019-01-13T12:46:15.692Z,97079.72
2019-01-13T12:48:48.430Z,97082.48
2019-01-13T12:51:20.476Z,97071.47
2019-01-13T12:53:53.175Z,97069.42
2019-01-13T12:56:25.339Z,97061.39
2019-01-13T12:58:57.648Z,97052.20
2019-01-13T13:01:30.252Z,97046.13
2019-01-13T13:04:02.157Z,97038.53
2019-01-13T13:06:34.774Z,97031.02
2019-01-13T13:09:09.854Z,97022.48
2019-01-13T13:11:42.193Z,97021.16
2019-01-13T13:14:14.751Z,97017.34
2019-01-13T13:16:46.526Z,97009.48
2019-01-13T13:19:18.844Z,96992.66
2019-01-13T13:21:51.173Z,96991.50
2019-01-13T13:24:23.488Z,96976.82
2019-01-13T13:26:55.830Z,96969.03
2019-01-13T13:29:28.227Z,96964.88
2019-01-13T13:32:00.707Z,96970.67
2019-01-13T13:34:33.073Z,96959.54
2019-01-13T13:37:05.386Z,96951.29
2019-01-13T13:39:37.687Z,96963.19
2019-01-13T13:42:10.016Z,96957.63
2019-01-13T13:44:42.331Z,96956.02
2019-01-13T13:47:14.810Z,96956.02
2019-01-13T13:49:47.305Z,96941.08
2019-01-13T13:52:19.798Z,96928.77
2019-01-13T13:54:52.629Z,96917.10
2019-01-13T13:57:25.260Z,96918.78
2019-01-13T13:59:57.835Z,96905.95
2019-01-13T14:02:30.115Z,96899.08
2019-01-13T14:05:02.539Z,96899.61
2019-01-13T14:07:35.174Z,96889.74
2019-01-13T14:10:12.443Z,96893.21
2019-01-13T14:12:44.897Z,96889.61
2019-01-13T14:15:17.187Z,96877.70
2019-01-13T14:17:49.586Z,96879.65
2019-01-13T14:20:21.911Z,96878.09
2019-01-13T14:22:54.633Z,96879.45
2019-01-13T14:25:26.400Z,96871.54
2019-01-13T14:27:59.461Z,96864.66
2019-01-13T14:30:31.852Z,96860.80
2019-01-13T14:33:03.644Z,96850.64
2019-01-13T14:35:36.376Z,96841.14
2019-01-13T14:38:08.616Z,96837.46
2019-01-13T14:40:40.965Z,96837.77
2019-01-13T14:43:13.598Z,96828.30
2019-01-13T14:45:45.351Z,96827.25
2019-01-13T14:48:17.688Z,96827.62
2019-01-13T14:50:50.271Z,96824.19
2019-01-13T14:53:22.046Z,96827.77
2019-01-13T14:55:54.376Z,96827.49
2019-01-13T14:58:26.694Z,96831.61
2019-01-13T15:00:59.058Z,96818.43
2019-01-13T15:03:31.387Z,96809.72
2019-01-13T15:06:03.696Z,96801.33
2019-01-13T15:08:36.027Z,96805.09
2019-01-13T15:11:08.400Z,96799.82
2019-01-13T15:13:40.765Z,96798.53
2019-01-13T15:16:13.126Z,96806.12
2019-01-13T15:18:45.466Z,96798.53
2019-01-13T15:21:17.948Z,96790.78
2019-01-13T15:23:50.286Z,96778.98
2019-01-13T15:26:22.707Z,96785.05
2019-01-13T15:28:55.396Z,96767.92
2019-01-13T15:31:27.422Z,96766.95
2019-01-13T15:33:59.787Z,96763.31
2019-01-13T15:36:32.628Z,96782.76
2019-01-13T15:39:08.242Z,96765.62
2019-01-13T15:41:40.577Z,96762.97
2019-01-13T15:44:13.189Z,96746.83
2019-01-13T15:46:44.943Z,96743.71
2019-01-13T15:49:17.239Z,96737.10
2019-01-13T15:51:49.577Z,96715.17
2019-01-13T15:54:22.266Z,96711.88
2019-01-13T15:56:54.630Z,96709.91
2019-01-13T15:59:26.399Z,96712.20
2019-01-13T16:01:58.732Z,96709.41
2019-01-13T16:04:31.292Z,96701.95
2019-01-13T16:07:03.406Z,96700.66
2019-01-13T16:09:35.240Z,96701.58
2019-01-13T16:12:07.626Z,96707.23
2019-01-13T16:14:44.140Z,96708.37
2019-01-13T16:17:31.629Z,96703.61
2019-01-13T16:20:47.404Z,96701.95
2019-01-13T16:23:30.015Z,96683.80
2019-01-13T16:26:22.575Z,96694.31
2019-01-13T16:29:02.129Z,96695.31
2019-01-13T16:31:46.130Z,96683.63
2019-01-13T16:34:35.343Z,96673.56
2019-01-13T16:37:20.007Z,96686.41
2019-01-13T16:40:09.471Z,96680.13
2019-01-13T16:42:52.530Z,96669.35
2019-01-13T16:45:41.965Z,96671.21
2019-01-13T16:48:23.115Z,96681.74
2019-01-13T16:51:24.909Z,96647.94
2019-01-13T16:54:20.122Z,96643.50
2019-01-13T16:57:10.036Z,96633.89
2019-01-13T17:00:00.395Z,96639.34
2019-01-13T17:02:37.925Z,96642.13
2019-01-13T17:05:11.630Z,96647.72
2019-01-13T17:07:44.256Z,96641.17
2019-01-13T17:10:18.759Z,96649.09
2019-01-13T17:12:51.447Z,96649.41
2019-01-13T17:15:34.168Z,96639.66
2019-01-13T17:18:09.700Z,96634.23
2019-01-13T17:20:42.017Z,96633.25
2019-01-13T17:23:14.648Z,96619.72
2019-01-13T17:25:46.958Z,96621.06
2019-01-13T17:28:19.089Z,96626.29
2019-01-13T17:30:51.491Z,96609.62
2019-01-13T17:33:23.815Z,96617.56
2019-01-13T17:35:56.172Z,96617.91
2019-01-13T17:38:28.514Z,96605.48
2019-01-13T17:41:00.847Z,96608.30
2019-01-13T17:43:33.278Z,96610.11
2019-01-13T17:46:05.873Z,96599.23
2019-01-13T17:48:37.791Z,96584.74
2019-01-13T17:51:10.536Z,96596.25
2019-01-13T17:53:42.591Z,96600.55
2019-01-13T17:56:15.025Z,96571.66
2019-01-13T17:58:47.853Z,96587.01
2019-01-13T18:01:35.140Z,96597.91
2019-01-13T18:04:07.575Z,96580.90
2019-01-13T18:06:40.239Z,96576.45
2019-01-13T18:09:12.425Z,96581.38
2019-01-13T18:11:44.648Z,96583.85
2019-01-13T18:14:17.286Z,96581.00
2019-01-13T18:16:49.504Z,96569.99
2019-01-13T18:19:21.923Z,96565.13
2019-01-13T18:21:54.219Z,96552.59
2019-01-13T18:24:26.564Z,96545.53
2019-01-13T18:26:59.205Z,96546.06
2019-01-13T18:29:30.976Z,96540.26
2019-01-13T18:32:03.270Z,96537.27
2019-01-13T18:34:35.582Z,96542.72
2019-01-13T18:37:07.959Z,96535.16
2019-01-13T18:39:40.366Z,96537.27
2019-01-13T18:42:13.105Z,96524.69
2019-01-13T18:44:45.133Z,96531.64
2019-01-13T18:47:17.449Z,96526.53
2019-01-13T18:49:50.132Z,96524.69
2019-01-13T18:52:22.191Z,96504.89
2019-01-13T18:54:54.757Z,96517.22
2019-01-13T18:57:27.232Z,96519.86
2019-01-13T18:59:59.298Z,96514.12
2019-01-13T19:02:31.888Z,96521.17
2019-01-13T19:05:03.767Z,96515.72
2019-01-13T19:07:36.091Z,96519.41
2019-01-13T19:10:21.712Z,96527.33
2019-01-13T19:13:02.959Z,96519.72
2019-01-13T19:15:35.326Z,96523.11
2019-01-13T19:18:07.694Z,96509.25
2019-01-13T19:20:40.215Z,96515.19
2019-01-13T19:23:17.075Z,96507.58
2019-01-13T19:25:49.392Z,96509.91
2019-01-13T19:28:21.712Z,96521.48
2019-01-13T19:30:54.433Z,96508.59
2019-01-13T19:33:26.516Z,96516.47
2019-01-13T19:35:58.826Z,96516.99
2019-01-13T19:38:31.165Z,96512.85
2019-01-13T19:41:03.785Z,96521.12
2019-01-13T19:43:35.691Z,96498.99
2019-01-13T19:46:08.137Z,96504.23
2019-01-13T19:48:40.715Z,96518.94
2019-01-13T19:51:12.646Z,96529.67
2019-01-13T19:53:44.968Z,96527.03
2019-01-13T19:56:17.396Z,96519.28
2019-01-13T19:58:50.180Z,96532.31
2019-01-13T20:01:22.935Z,96534.47
2019-01-13T20:03:55.013Z,96528.00
2019-01-13T20:06:27.503Z,96522.72
2019-01-13T20:09:00.180Z,96516.83
2019-01-13T20:11:32.443Z,96503.03
2019-01-13T20:14:04.643Z,96504.31
2019-01-13T20:16:37.008Z,96490.19
2019-01-13T20:19:09.662Z,96489.74
2019-01-13T20:21:41.440Z,96483.32
2019-01-13T20:24:16.131Z,96492.56
2019-01-13T20:26:48.436Z,96494.89
2019-01-13T20:29:21.181Z,96493.30
2019-01-13T20:31:53.273Z,96476.84
2019-01-13T20:34:25.578Z,96482.78
2019-01-13T20:36:57.924Z,96485.81
2019-01-13T20:39:30.568Z,96486.47
2019-01-13T20:42:02.674Z,96498.69
2019-01-13T20:44:34.813Z,96499.35
2019-01-13T20:47:06.988Z,96500.67
2019-01-13T20:49:38.776Z,96504.00
2019-01-13T20:52:11.414Z,96490.46
2019-01-13T20:54:43.310Z,96499.35
2019-01-13T20:57:15.664Z,96492.41
2019-01-13T20:59:48.421Z,96473.80
2019-01-13T21:02:20.538Z,96471.56
2019-01-13T21:04:52.827Z,96472.44
2019-01-13T21:07:25.581Z,96476.95
2019-01-13T21:09:58.102Z,96477.75
2019-01-13T21:12:30.200Z,96478.55
2019-01-13T21:15:02.945Z,96480.70
2019-01-13T21:17:34.958Z,96481.70
2019-01-13T21:20:07.914Z,96482.86
2019-01-13T21:22:40.079Z,96479.25
2019-01-13T21:25:14.210Z,96462.09
2019-01-13T21:27:47.069Z,96474.48
2019-01-13T21:30:22.790Z,96472.48
2019-01-13T21:32:55.123Z,96441.69
2019-01-13T21:35:33.861Z,96454.11
2019-01-13T21:38:01.589Z,96453.59
2019-01-13T21:40:34.192Z,96466.50
2019-01-13T21:43:05.981Z,96458.28
2019-01-13T21:45:38.273Z,96476.74
2019-01-13T21:48:10.593Z,96478.55
2019-01-13T21:50:42.898Z,96483.69
2019-01-13T21:53:15.206Z,96487.98
2019-01-13T21:55:47.684Z,96507.28
2019-01-13T21:58:20.015Z,96528.06
2019-01-13T22:00:52.341Z,96521.72
2019-01-13T22:03:24.655Z,96518.14
2019-01-13T22:05:57.155Z,96506.44
2019-01-13T22:08:29.472Z,96517.48
2019-01-13T22:11:01.778Z,96512.72
2019-01-13T22:13:34.082Z,96512.91
2019-01-13T22:16:06.372Z,96522.80
2019-01-13T22:18:38.706Z,96515.89
2019-01-13T22:21:11.282Z,96516.70
2019-01-13T22:23:43.042Z,96522.34
2019-01-13T22:26:15.436Z,96505.72
2019-01-13T22:28:47.839Z,96526.45
2019-01-13T22:31:22.413Z,96527.77
2019-01-13T22:33:54.563Z,96518.87
2019-01-13T22:36:27.006Z,96522.52
2019-01-13T22:38:59.622Z,96542.11
2019-01-13T22:41:31.515Z,96531.91
2019-01-13T22:44:04.233Z,96537.34
2019-01-13T22:46:36.348Z,96537.84
2019-01-13T22:49:08.939Z,96534.89
2019-01-13T22:51:40.724Z,96545.91
2019-01-13T22:54:13.210Z,96549.36
2019-01-13T22:56:45.493Z,96560.40
2019-01-13T22:59:17.800Z,96555.14
2019-01-13T23:01:50.214Z,96569.43
2019-01-13T23:04:22.519Z,96567.12
2019-01-13T23:06:54.810Z,96578.49
2019-01-13T23:09:27.144Z,96582.77
2019-01-13T23:11:59.538Z,96581.13
2019-01-13T23:14:31.885Z,96583.93
2019-01-13T23:17:04.168Z,96601.71
2019-01-13T23:19:36.460Z,96595.45
2019-01-13T23:22:08.747Z,96608.14
2019-01-13T23:24:41.068Z,96596.44
2019-01-13T23:27:13.451Z,96600.89
2019-01-13T23:29:45.765Z,96604.17
2019-01-13T23:32:18.191Z,96605.16
2019-01-13T23:34:50.775Z,96608.44
2019-01-13T23:37:22.805Z,96609.44
2019-01-13T23:39:55.117Z,96611.08
2019-01-13T23:42:27.767Z,96620.29
2019-01-13T23:44:59.666Z,96610.72
2019-01-13T23:47:31.964Z,96607.77
2019-01-13T23:50:04.321Z,96599.55
2019-01-13T23:52:36.620Z,96610.08
2019-01-13T23:55:09.240Z,96614.02
2019-01-13T23:57:41.092Z,96612.07
